Airways and Terminal Forecast

Significant Meteorological Information

Terminal Aerodrome Forecast

 TAF RPLL

 

211700Z 2118/2224 08008KT 9999 FEW025 TX32/2206Z TN24/2122Z TEMPO 2118/2124 10006KT FEW023 SCT100 TEMPO 2200/2206 06015KT SCT023=

TAF RPVM

211700Z 2118/2224 05010KT 9999 FEW020 BKN300 TEMPO 2118/2124 03013KT -RA FEW020 BKN100 TEMPO 2200/2206 02014KT SCT020 OVC090=­

TAF RPLC

211700Z 2118/2224 32006KT 9999 FEW020 SCT300 TX31/2206Z TN21/2122Z TEMPO 2118/2124 34005KT FEW020 SCT300=

TAF RPLB

211700Z 2118/2218 06008KT 9999 FEW020 TX31/2206Z TN20/2121Z TEMPO 2118/2124 05010KT FEW020 SCT300=

TAF RPLI

211700Z 2118/2218 12008KT 9999 FEW018 TEMPO 2118/2124 VRB03KT 5000 HZ FEW018=

TAF RPVP

211700Z 2118/2218 09015KT 9999 FEW019 SCT080 TEMPO 2118/2124 07004KT FEW019 BKN080=

TAF RPVD

211700Z 2118/2218 04010KT 9999 FEW015 SCT220 TEMPO 2118/2124 02006KT SCT014 BKN070=

TAF RPMR

211700Z 2118/2218 02008KT 9999 FEW018 SCT250 TEMPO 2118/2124 34005KT FEW018 BKN080=

TAF RPMD

211700Z 2118/2218 36008KT 9999 FEW016 SCT290 TEMPO 2118/2124 01006KT FEW016 SCT090=

TAF RPMZ

211700Z 2118/2218 08006KT 9999 FEW017 SCT300 TEMPO 2118/2124 05005KT FEW017 BKN300 TEMPO 2206/2212 26010KT=

RPLL FORECAST TAKE-OFF CONDITION

TIME

(UTC)

WIND

(dddffKT)

TEMP

(°C)

QNH

(hPa)

TIME

(UTC)

WIND

(dddffKT)

TEMP

(°C)

QNH

(hPa)

1800

10005KT­

24.5

1018.0

2100

08004KT

24.0

1017.0

1900

10005KT­

24.0

1017.5

2200

06005KT­

23.5

1017.5

2000

08004KT

24.0

1017.0

2300

06005KT­

24.0

1018.0

 

ISSUED AT NAIA AMSS-WD/PAGASA-DOST FOR 1700UTC 21 FEBRUARY 2020

PREPARED BY:                 SAIN

CHECKED BY:                  CRSED